Time,TemperatureF,DewpointF,PressureIn,WindDirection,WindDirectionDegrees,WindSpeedMPH,WindSpeedGustMPH,Humidity,HourlyPrecipIn,Conditions,Clouds,dailyrainin,SoftwareType,DateUTC
2013-05-14 00:00:00,38.0,32.6,30.09,West,266,0.0,0.0,81,0.00,FEW,,0.00,WeatherDisplay:10.37,2013-05-14 04:00:00,
2013-05-14 00:10:00,37.6,32.6,30.09,West,266,0.0,0.0,82,0.00,SCT,,0.00,WeatherDisplay:10.37,2013-05-14 04:10:00,
2013-05-14 00:30:00,37.3,32.9,30.09,West,266,0.0,0.0,84,0.00,SCT,,0.00,WeatherDisplay:10.37,2013-05-14 04:30:00,
2013-05-14 00:40:00,37.4,33.0,30.08,West,266,0.0,0.0,84,0.00,SCT,,0.00,WeatherDisplay:10.37,2013-05-14 04:40:00,
2013-05-14 00:50:00,37.5,33.1,30.08,West,266,0.0,0.0,84,0.00,SCT,,0.00,WeatherDisplay:10.37,2013-05-14 04:50:00,
2013-05-14 01:00:00,37.7,33.6,30.08,West,266,0.0,0.0,85,0.00,SCT,,0.00,WeatherDisplay:10.37,2013-05-14 05:00:00,
2013-05-14 01:10:00,37.8,33.7,30.08,West,266,0.0,0.0,85,0.00,BKN,,0.00,WeatherDisplay:10.37,2013-05-14 05:10:00,
2013-05-14 01:20:00,37.9,33.8,30.08,West,266,0.0,0.0,85,0.00,BKN,,0.00,WeatherDisplay:10.37,2013-05-14 05:20:00,
2013-05-14 01:30:00,38.0,34.2,30.08,West,266,0.0,0.0,86,0.00,BKN,,0.00,WeatherDisplay:10.37,2013-05-14 05:30:00,
2013-05-14 01:40:00,38.0,34.2,30.08,West,263,1.0,5.0,86,0.00,BKN,,0.00,WeatherDisplay:10.37,2013-05-14 05:40:00,
2013-05-14 01:50:00,37.9,33.5,30.07,West,268,0.0,5.0,84,0.00,BKN,,0.00,WeatherDisplay:10.37,2013-05-14 05:50:00,
2013-05-14 02:00:00,37.9,33.2,30.07,West,267,1.0,5.0,83,0.00,BKN,,0.00,WeatherDisplay:10.37,2013-05-14 06:00:00,
2013-05-14 02:10:00,37.8,32.8,30.08,West,267,0.0,5.0,82,0.00,SCT,,0.00,WeatherDisplay:10.37,2013-05-14 06:10:00,
2013-05-14 02:20:00,37.8,32.8,30.08,West,267,0.0,0.0,82,0.00,SCT,,0.00,WeatherDisplay:10.37,2013-05-14 06:20:00,
2013-05-14 02:30:00,37.8,32.8,30.08,West,267,0.0,0.0,82,0.00,SCT,,0.00,WeatherDisplay:10.37,2013-05-14 06:30:00,
2013-05-14 02:40:00,38.1,33.4,30.08,West,267,0.0,0.0,83,0.00,SCT,,0.00,WeatherDisplay:10.37,2013-05-14 06:40:00,
2013-05-14 02:50:00,38.2,33.8,30.08,West,267,0.0,2.0,84,0.00,SCT,,0.00,WeatherDisplay:10.37,2013-05-14 06:50:00,
2013-05-14 03:00:00,38.3,33.9,30.08,West,267,0.0,3.0,84,0.00,SCT,,0.00,WeatherDisplay:10.37,2013-05-14 07:00:00,
2013-05-14 03:10:00,38.4,33.7,30.09,West,267,0.0,3.0,83,0.00,BKN,,0.00,WeatherDisplay:10.37,2013-05-14 07:10:00,
2013-05-14 03:20:00,38.6,33.9,30.09,West,267,0.0,2.0,83,0.00,BKN,,0.00,WeatherDisplay:10.37,2013-05-14 07:20:00,
2013-05-14 03:30:00,38.8,33.4,30.09,West,267,0.0,3.0,81,0.00,BKN,,0.00,WeatherDisplay:10.37,2013-05-14 07:30:00,
2013-05-14 03:40:00,38.9,33.9,30.09,West,267,0.0,3.0,82,0.00,BKN,,0.00,WeatherDisplay:10.37,2013-05-14 07:40:00,
2013-05-14 03:50:00,39.0,34.0,30.09,West,267,0.0,0.0,82,0.00,BKN,,0.00,WeatherDisplay:10.37,2013-05-14 07:50:00,
2013-05-14 04:00:00,39.1,34.4,30.09,West,267,0.0,0.0,83,0.00,BKN,,0.00,WeatherDisplay:10.37,2013-05-14 08:00:00,
2013-05-14 04:10:00,39.0,34.3,30.09,West,267,0.0,2.0,83,0.00,BKN,,0.00,WeatherDisplay:10.37,2013-05-14 08:10:00,
2013-05-14 04:20:00,39.0,34.3,30.09,West,267,0.0,0.0,83,0.00,BKN,,0.00,WeatherDisplay:10.37,2013-05-14 08:20:00,
2013-05-14 04:30:00,39.0,34.2,30.10,West,267,0.0,0.0,83,0.00,BKN,,0.00,WeatherDisplay:10.37,2013-05-14 08:30:00,
2013-05-14 04:40:00,38.9,34.2,30.10,West,267,0.0,2.0,83,0.00,BKN,,0.00,WeatherDisplay:10.37,2013-05-14 08:40:00,
2013-05-14 04:50:00,38.9,34.2,30.10,West,267,0.0,2.0,83,0.00,BKN,,0.00,WeatherDisplay:10.37,2013-05-14 08:50:00,
2013-05-14 05:00:00,39.0,34.3,30.10,West,267,0.0,2.0,83,0.00,BKN,,0.00,WeatherDisplay:10.37,2013-05-14 09:00:00,
2013-05-14 05:10:00,38.9,33.9,30.10,West,264,1.0,5.0,82,0.00,BKN,,0.00,WeatherDisplay:10.37,2013-05-14 09:10:00,
2013-05-14 05:20:00,39.1,33.8,30.10,WSW,252,0.0,5.0,81,0.00,BKN,,0.00,WeatherDisplay:10.37,2013-05-14 09:20:00,
2013-05-14 05:30:00,39.0,33.7,30.10,WSW,252,1.0,5.0,81,0.00,BKN,,0.00,WeatherDisplay:10.37,2013-05-14 09:30:00,
2013-05-14 05:40:00,38.7,33.7,30.10,WSW,249,0.0,3.0,82,0.00,BKN,,0.00,WeatherDisplay:10.37,2013-05-14 09:40:00,
2013-05-14 05:50:00,38.2,33.5,30.10,WSW,248,0.0,2.0,83,0.00,BKN,,0.00,WeatherDisplay:10.37,2013-05-14 09:50:00,
2013-05-14 06:00:00,37.9,33.5,30.10,WSW,248,0.0,2.0,84,0.00,BKN,,0.00,WeatherDisplay:10.37,2013-05-14 10:00:00,
2013-05-14 06:10:00,37.7,33.6,30.10,WSW,248,0.0,2.0,85,0.00,BKN,,0.00,WeatherDisplay:10.37,2013-05-14 10:10:00,
2013-05-14 06:20:00,37.6,33.8,30.10,WSW,248,1.0,3.0,86,0.00,BKN,,0.00,WeatherDisplay:10.37,2013-05-14 10:20:00,
2013-05-14 06:30:00,37.9,34.4,30.11,WSW,248,0.0,2.0,87,0.00,BKN,,0.00,WeatherDisplay:10.37,2013-05-14 10:30:00,
2013-05-14 06:40:00,38.4,34.6,30.11,WSW,248,1.0,3.0,86,0.00,BKN,,0.00,WeatherDisplay:10.37,2013-05-14 10:40:00,
2013-05-14 06:50:00,39.8,34.8,30.11,WSW,248,0.0,0.0,82,0.00,BKN,,0.00,WeatherDisplay:10.37,2013-05-14 10:50:00,
2013-05-14 07:00:00,41.0,35.0,30.11,WSW,248,0.0,2.0,79,0.00,BKN,,0.00,WeatherDisplay:10.37,2013-05-14 11:00:00,
2013-05-14 07:10:00,41.7,35.0,30.11,WSW,257,3.0,6.0,77,0.00,FEW,,0.00,WeatherDisplay:10.37,2013-05-14 11:10:00,
2013-05-14 07:20:00,42.7,35.0,30.11,West,271,3.0,8.0,74,0.00,FEW,,0.00,WeatherDisplay:10.37,2013-05-14 11:20:00,
2013-05-14 07:30:00,43.1,35.7,30.12,WNW,295,3.0,6.0,75,0.00,FEW,,0.00,WeatherDisplay:10.37,2013-05-14 11:30:00,
2013-05-14 07:40:00,43.8,35.4,30.12,WNW,300,3.0,10.0,72,0.00,FEW,,0.00,WeatherDisplay:10.37,2013-05-14 11:40:00,
2013-05-14 07:50:00,44.1,35.3,30.12,WNW,291,2.0,8.0,71,0.00,FEW,,0.00,WeatherDisplay:10.37,2013-05-14 11:50:00,
2013-05-14 08:00:00,45.4,35.8,30.12,West,279,7.0,9.0,69,0.00,FEW,,0.00,WeatherDisplay:10.37,2013-05-14 12:00:00,
2013-05-14 08:10:00,45.4,35.1,30.12,NW,308,8.0,15.0,67,0.00,FEW,,0.00,WeatherDisplay:10.37,2013-05-14 12:10:00,
2013-05-14 08:20:00,45.6,35.7,30.12,West,278,6.0,12.0,68,0.00,FEW,,0.00,WeatherDisplay:10.37,2013-05-14 12:20:00,
2013-05-14 08:30:00,45.8,34.7,30.12,WNW,291,7.0,12.0,65,0.00,FEW,,0.00,WeatherDisplay:10.37,2013-05-14 12:30:00,
2013-05-14 08:40:00,46.0,35.3,30.12,WNW,299,10.0,14.0,66,0.00,FEW,,0.00,WeatherDisplay:10.37,2013-05-14 12:40:00,
2013-05-14 08:50:00,46.9,35.4,30.12,West,278,6.0,14.0,64,0.00,FEW,,0.00,WeatherDisplay:10.37,2013-05-14 12:50:00,
2013-05-14 09:00:00,47.2,35.2,30.12,WNW,291,5.0,9.0,63,0.00,FEW,,0.00,WeatherDisplay:10.37,2013-05-14 13:00:00,
2013-05-14 09:10:00,47.5,34.7,30.11,WNW,294,7.0,12.0,61,0.00,FEW,,0.00,WeatherDisplay:10.37,2013-05-14 13:10:00,
2013-05-14 09:20:00,48.2,35.4,30.11,WNW,293,5.0,12.0,61,0.00,FEW,,0.00,WeatherDisplay:10.37,2013-05-14 13:20:00,
2013-05-14 09:30:00,47.8,34.6,30.11,WNW,302,7.0,15.0,60,0.00,FEW,,0.00,WeatherDisplay:10.37,2013-05-14 13:30:00,
2013-05-14 09:40:00,48.3,35.1,30.11,NW,316,10.0,10.0,60,0.00,FEW,,0.00,WeatherDisplay:10.37,2013-05-14 13:40:00,
2013-05-14 09:50:00,49.8,35.1,30.10,North,6,8.0,9.0,57,0.00,FEW,,0.00,WeatherDisplay:10.37,2013-05-14 13:50:00,
2013-05-14 10:00:00,50.0,34.5,30.10,NE,55,6.0,9.0,55,0.00,FEW,,0.00,WeatherDisplay:10.37,2013-05-14 14:00:00,
2013-05-14 10:10:00,50.4,34.4,30.10,North,349,6.0,10.0,54,0.00,FEW,,0.00,WeatherDisplay:10.37,2013-05-14 14:10:00,
2013-05-14 10:20:00,50.7,34.6,30.10,North,349,6.0,10.0,54,0.00,FEW,,0.00,WeatherDisplay:10.37,2013-05-14 14:20:00,
2013-05-14 10:30:00,50.8,34.2,30.10,NNW,335,5.0,12.0,53,0.00,FEW,,0.00,WeatherDisplay:10.37,2013-05-14 14:30:00,
2013-05-14 10:40:00,50.7,35.5,30.10,NNW,344,8.0,10.0,56,0.00,FEW,,0.00,WeatherDisplay:10.37,2013-05-14 14:40:00,
2013-05-14 10:50:00,51.6,36.4,30.09,NW,308,5.0,15.0,56,0.00,FEW,,0.00,WeatherDisplay:10.37,2013-05-14 14:50:00,
2013-05-14 11:00:00,51.3,34.7,30.09,NW,322,3.0,12.0,53,0.00,FEW,,0.00,WeatherDisplay:10.37,2013-05-14 15:00:00,
2013-05-14 11:10:00,53.3,36.6,30.09,East,81,9.0,9.0,53,0.00,SCT,,0.00,WeatherDisplay:10.37,2013-05-14 15:10:00,
2013-05-14 11:20:00,52.5,35.3,30.09,NW,326,5.0,12.0,52,0.00,SCT,,0.00,WeatherDisplay:10.37,2013-05-14 15:20:00,
2013-05-14 11:30:00,52.3,35.7,30.09,West,261,6.0,9.0,53,0.00,SCT,,0.00,WeatherDisplay:10.37,2013-05-14 15:30:00,
2013-05-14 11:40:00,52.0,34.5,30.08,North,352,2.0,6.0,51,0.00,SCT,,0.00,WeatherDisplay:10.37,2013-05-14 15:40:00,
2013-05-14 11:50:00,53.0,34.3,30.08,North,355,9.0,12.0,49,0.00,SCT,,0.00,WeatherDisplay:10.37,2013-05-14 15:50:00,
2013-05-14 12:00:00,52.5,33.3,30.08,ENE,65,2.0,9.0,48,0.00,SCT,,0.00,WeatherDisplay:10.37,2013-05-14 16:00:00,
2013-05-14 12:10:00,52.9,33.7,30.08,NNW,337,2.0,12.0,48,0.00,BKN,,0.00,WeatherDisplay:10.37,2013-05-14 16:10:00,
2013-05-14 12:20:00,52.6,33.0,30.08,NNW,327,1.0,8.0,47,0.00,BKN,,0.00,WeatherDisplay:10.37,2013-05-14 16:20:00,
2013-05-14 12:30:00,52.2,32.0,30.09,NW,308,5.0,10.0,46,0.00,BKN,,0.00,WeatherDisplay:10.37,2013-05-14 16:30:00,
2013-05-14 12:40:00,52.6,33.4,30.09,NW,319,10.0,12.0,48,0.00,BKN,,0.00,WeatherDisplay:10.37,2013-05-14 16:40:00,
2013-05-14 12:50:00,53.4,33.1,30.09,NW,312,12.0,15.0,46,0.00,BKN,,0.00,WeatherDisplay:10.37,2013-05-14 16:50:00,
2013-05-14 13:00:00,53.6,32.2,30.08,NW,315,3.0,10.0,44,0.00,BKN,,0.00,WeatherDisplay:10.37,2013-05-14 17:00:00,
2013-05-14 13:10:00,53.7,32.3,30.08,West,261,1.0,10.0,44,0.00,BKN,,0.00,WeatherDisplay:10.37,2013-05-14 17:10:00,
2013-05-14 13:20:00,53.7,32.3,30.08,WNW,288,5.0,9.0,44,0.00,BKN,,0.00,WeatherDisplay:10.37,2013-05-14 17:20:00,
2013-05-14 13:30:00,54.5,33.0,30.08,NW,325,12.0,14.0,44,0.00,BKN,,0.00,WeatherDisplay:10.37,2013-05-14 17:30:00,
2013-05-14 13:40:00,54.5,32.4,30.07,WNW,293,5.0,15.0,43,0.00,BKN,,0.00,WeatherDisplay:10.37,2013-05-14 17:40:00,
2013-05-14 13:50:00,55.7,32.9,30.07,North,1,0.0,20.0,42,0.00,BKN,,0.00,WeatherDisplay:10.37,2013-05-14 17:50:00,
2013-05-14 14:00:00,56.1,32.7,30.07,West,281,3.0,14.0,41,0.00,BKN,,0.00,WeatherDisplay:10.37,2013-05-14 18:00:00,
2013-05-14 14:10:00,56.2,32.2,30.07,WNW,300,6.0,16.0,40,0.00,BKN,,0.00,WeatherDisplay:10.37,2013-05-14 18:10:00,
2013-05-14 14:20:00,55.5,30.2,30.07,WNW,302,6.0,16.0,38,0.00,BKN,,0.00,WeatherDisplay:10.37,2013-05-14 18:20:00,
2013-05-14 14:30:00,54.5,30.0,30.06,West,269,6.0,10.0,39,0.00,BKN,,0.00,WeatherDisplay:10.37,2013-05-14 18:30:00,
2013-05-14 14:40:00,54.6,30.8,30.06,NW,316,7.0,8.0,40,0.00,BKN,,0.00,WeatherDisplay:10.37,2013-05-14 18:40:00,
2013-05-14 14:50:00,55.6,31.6,30.06,NNW,343,8.0,10.0,40,0.00,BKN,,0.00,WeatherDisplay:10.37,2013-05-14 18:50:00,
2013-05-14 15:00:00,55.8,31.9,30.05,WNW,294,6.0,10.0,40,0.00,BKN,,0.00,WeatherDisplay:10.37,2013-05-14 19:00:00,
2013-05-14 15:10:00,55.3,30.8,30.05,NW,310,8.0,14.0,39,0.00,BKN,,0.00,WeatherDisplay:10.37,2013-05-14 19:10:00,
2013-05-14 15:20:00,55.2,31.9,30.05,WNW,292,1.0,12.0,41,0.00,BKN,,0.00,WeatherDisplay:10.37,2013-05-14 19:20:00,
2013-05-14 15:30:00,55.7,31.7,30.05,NW,313,9.0,16.0,40,0.00,BKN,,0.00,WeatherDisplay:10.37,2013-05-14 19:30:00,
2013-05-14 15:40:00,57.3,32.5,30.05,NW,315,13.0,18.0,39,0.00,BKN,,0.00,WeatherDisplay:10.37,2013-05-14 19:40:00,
2013-05-14 15:50:00,56.0,30.7,30.04,WNW,295,3.0,15.0,38,0.00,BKN,,0.00,WeatherDisplay:10.37,2013-05-14 19:50:00,
2013-05-14 16:00:00,56.4,31.7,30.03,NW,321,8.0,12.0,39,0.00,BKN,,0.00,WeatherDisplay:10.37,2013-05-14 20:00:00,
2013-05-14 16:10:00,58.4,32.9,30.03,WNW,292,6.0,12.0,38,0.00,BKN,,0.00,WeatherDisplay:10.37,2013-05-14 20:10:00,
2013-05-14 16:20:00,57.4,28.5,30.03,NW,307,7.0,16.0,33,0.00,BKN,,0.00,WeatherDisplay:10.37,2013-05-14 20:20:00,
2013-05-14 16:30:00,56.6,30.6,30.02,NNW,328,5.0,12.0,37,0.00,BKN,,0.00,WeatherDisplay:10.37,2013-05-14 20:30:00,
2013-05-14 16:40:00,58.6,31.7,30.02,NW,305,7.0,23.0,36,0.00,BKN,,0.00,WeatherDisplay:10.37,2013-05-14 20:40:00,
2013-05-14 16:50:00,58.4,30.9,30.02,NW,306,3.0,12.0,35,0.00,BKN,,0.00,WeatherDisplay:10.37,2013-05-14 20:50:00,
2013-05-14 17:00:00,59.5,31.1,30.02,NW,307,15.0,16.0,34,0.00,BKN,,0.00,WeatherDisplay:10.37,2013-05-14 21:00:00,
2013-05-14 17:10:00,57.5,29.3,30.01,West,269,10.0,15.0,34,0.00,SCT,,0.00,WeatherDisplay:10.37,2013-05-14 21:10:00,
2013-05-14 17:20:00,57.9,30.4,30.01,WNW,292,8.0,10.0,35,0.00,SCT,,0.00,WeatherDisplay:10.37,2013-05-14 21:20:00,
2013-05-14 17:30:00,58.3,30.0,30.01,WSW,253,9.0,14.0,34,0.00,SCT,,0.00,WeatherDisplay:10.37,2013-05-14 21:30:00,
2013-05-14 17:40:00,57.7,30.2,30.01,WNW,284,5.0,14.0,35,0.00,SCT,,0.00,WeatherDisplay:10.37,2013-05-14 21:40:00,
2013-05-14 17:50:00,57.4,30.0,30.01,NNW,331,3.0,10.0,35,0.00,SCT,,0.00,WeatherDisplay:10.37,2013-05-14 21:50:00,
2013-05-14 18:00:00,57.4,30.6,30.01,NW,318,7.0,14.0,36,0.00,SCT,,0.00,WeatherDisplay:10.37,2013-05-14 22:00:00,
2013-05-14 18:10:00,56.3,29.7,30.01,West,281,6.0,9.0,36,0.00,SCT,,0.00,WeatherDisplay:10.37,2013-05-14 22:10:00,
2013-05-14 18:20:00,55.7,31.1,30.01,WNW,302,6.0,8.0,39,0.00,SCT,,0.00,WeatherDisplay:10.37,2013-05-14 22:20:00,
2013-05-14 18:30:00,55.9,30.6,30.01,West,280,3.0,8.0,38,0.00,SCT,,0.00,WeatherDisplay:10.37,2013-05-14 22:30:00,
2013-05-14 18:40:00,56.2,31.5,30.01,West,266,2.0,8.0,39,0.00,SCT,,0.00,WeatherDisplay:10.37,2013-05-14 22:40:00,
2013-05-14 18:50:00,56.0,31.4,30.01,NW,305,1.0,8.0,39,0.00,SCT,,0.00,WeatherDisplay:10.37,2013-05-14 22:50:00,
2013-05-14 19:00:00,55.6,29.7,30.01,West,267,1.0,10.0,37,0.00,SCT,,0.00,WeatherDisplay:10.37,2013-05-14 23:00:00,
2013-05-14 19:10:00,55.1,30.6,30.01,WSW,241,1.0,5.0,39,0.00,SCT,,0.00,WeatherDisplay:10.37,2013-05-14 23:10:00,
2013-05-14 19:20:00,54.9,31.0,30.01,West,268,2.0,9.0,40,0.00,SCT,,0.00,WeatherDisplay:10.37,2013-05-14 23:20:00,
2013-05-14 19:30:00,54.6,31.3,30.01,WNW,285,1.0,5.0,41,0.00,SCT,,0.00,WeatherDisplay:10.37,2013-05-14 23:30:00,
2013-05-14 19:40:00,54.2,31.0,30.01,West,281,3.0,12.0,41,0.00,SCT,,0.00,WeatherDisplay:10.37,2013-05-14 23:40:00,
2013-05-14 19:50:00,53.7,30.5,30.01,WSW,256,6.0,10.0,41,0.00,SCT,,0.00,WeatherDisplay:10.37,2013-05-14 23:50:00,
2013-05-14 20:00:00,53.3,30.8,30.02,West,265,1.0,6.0,42,0.00,SCT,,0.00,WeatherDisplay:10.37,2013-05-15 00:00:00,
2013-05-14 20:10:00,52.8,31.4,30.02,West,259,1.0,6.0,44,0.00,FEW,,0.00,WeatherDisplay:10.37,2013-05-15 00:10:00,
2013-05-14 20:20:00,51.5,32.4,30.02,West,260,0.0,5.0,48,0.00,FEW,,0.00,WeatherDisplay:10.37,2013-05-15 00:20:00,
2013-05-14 20:30:00,49.5,34.5,30.02,West,261,0.0,3.0,56,0.00,FEW,,0.00,WeatherDisplay:10.37,2013-05-15 00:30:00,
2013-05-14 20:40:00,47.8,33.2,30.02,West,261,0.0,3.0,57,0.00,FEW,,0.00,WeatherDisplay:10.37,2013-05-15 00:40:00,
2013-05-14 20:50:00,46.5,33.4,30.03,West,261,0.0,0.0,60,0.00,FEW,,0.00,WeatherDisplay:10.37,2013-05-15 00:50:00,
2013-05-14 21:00:00,45.7,33.4,30.03,West,261,1.0,3.0,62,0.00,FEW,,0.00,WeatherDisplay:10.37,2013-05-15 01:00:00,
2013-05-14 21:10:00,44.9,33.5,30.03,West,261,0.0,3.0,64,0.00,FEW,,0.00,WeatherDisplay:10.37,2013-05-15 01:10:00,
2013-05-14 21:20:00,44.2,33.6,30.03,West,261,1.0,2.0,66,0.00,FEW,,0.00,WeatherDisplay:10.37,2013-05-15 01:20:00,
2013-05-14 21:30:00,44.0,34.1,30.04,West,261,0.0,2.0,68,0.00,FEW,,0.00,WeatherDisplay:10.37,2013-05-15 01:30:00,
2013-05-14 21:40:00,43.6,33.7,30.04,West,261,0.0,0.0,68,0.00,FEW,,0.00,WeatherDisplay:10.37,2013-05-15 01:40:00,
2013-05-14 21:50:00,43.1,33.6,30.04,West,261,0.0,2.0,69,0.00,FEW,,0.00,WeatherDisplay:10.37,2013-05-15 01:50:00,
2013-05-14 22:00:00,42.7,33.6,30.04,West,261,0.0,2.0,70,0.00,FEW,,0.00,WeatherDisplay:10.37,2013-05-15 02:00:00,
2013-05-14 22:10:00,42.6,33.5,30.04,West,261,0.0,2.0,70,0.00,CLR,,0.00,WeatherDisplay:10.37,2013-05-15 02:10:00,
2013-05-14 22:20:00,42.5,33.8,30.04,West,261,0.0,2.0,71,0.00,CLR,,0.00,WeatherDisplay:10.37,2013-05-15 02:20:00,
2013-05-14 22:30:00,41.9,33.2,30.04,West,261,0.0,0.0,71,0.00,CLR,,0.00,WeatherDisplay:10.37,2013-05-15 02:30:00,
2013-05-14 22:40:00,41.3,33.3,30.04,West,261,0.0,0.0,73,0.00,CLR,,0.00,WeatherDisplay:10.37,2013-05-15 02:40:00,
2013-05-14 22:50:00,41.0,33.7,30.04,West,261,0.0,0.0,75,0.00,CLR,,0.00,WeatherDisplay:10.37,2013-05-15 02:50:00,
2013-05-14 23:00:00,40.8,33.5,30.04,West,261,0.0,0.0,75,0.00,CLR,,0.00,WeatherDisplay:10.37,2013-05-15 03:00:00,
2013-05-14 23:10:00,40.2,33.2,30.04,West,261,0.0,0.0,76,0.00,CLR,,0.00,WeatherDisplay:10.37,2013-05-15 03:10:00,
2013-05-14 23:20:00,40.1,32.5,30.04,West,261,0.0,3.0,74,0.00,CLR,,0.00,WeatherDisplay:10.37,2013-05-15 03:20:00,
2013-05-14 23:30:00,39.8,33.2,30.04,West,261,0.0,2.0,77,0.00,CLR,,0.00,WeatherDisplay:10.37,2013-05-15 03:30:00,
2013-05-14 23:40:00,39.2,32.9,30.05,West,261,1.0,2.0,78,0.00,CLR,,0.00,WeatherDisplay:10.37,2013-05-15 03:40:00,
2013-05-14 23:50:00,38.9,32.9,30.05,West,261,0.0,2.0,79,0.00,CLR,,0.00,WeatherDisplay:10.37,2013-05-15 03:50:00,